Time;durP1;ratioP1;P1;durP2;ratioP2;P2;SDS_P1;SDS_P2;PMS_P1;PMS_P2;Temp;Humidity;BMP_temperature;BMP_pressure;BME280_temperature;BME280_humidity;BME280_pressure;Samples;Min_cycle;Max_cycle;Signal;HPM_P1;HPM_P2
2021/09/29 00:01:43;;;;;;;7.07;4.80;;;14.30;99.90;;;;;;5010673;28;20203;-82
2021/09/29 00:04:10;;;;;;;7.23;4.20;;;14.30;99.90;;;;;;5009985;28;20811;-90
2021/09/29 00:06:37;;;;;;;8.53;4.73;;;14.30;99.90;;;;;;5023702;28;20207;-86
2021/09/29 00:09:04;;;;;;;8.43;4.50;;;14.20;99.90;;;;;;5032015;28;20195;-80
2021/09/29 00:11:31;;;;;;;7.10;4.80;;;14.20;99.90;;;;;;5032423;28;20210;-90
2021/09/29 00:13:58;;;;;;;10.73;4.70;;;14.20;99.90;;;;;;5033206;28;20230;-86
2021/09/29 00:16:27;;;;;;;8.37;4.37;;;14.20;99.90;;;;;;5031886;28;20210;-88
2021/09/29 00:18:53;;;;;;;10.63;4.67;;;14.20;99.90;;;;;;5030342;28;20199;-86
2021/09/29 00:21:20;;;;;;;8.37;4.53;;;14.20;99.90;;;;;;5018777;28;20207;-89
2021/09/29 00:23:48;;;;;;;6.57;4.87;;;14.20;99.90;;;;;;5013343;28;20199;-87
2021/09/29 00:26:14;;;;;;;9.43;4.60;;;14.10;99.90;;;;;;5012366;28;20224;-83
2021/09/29 00:28:41;;;;;;;10.97;5.03;;;14.10;99.90;;;;;;5017321;28;20717;-81
2021/09/29 00:31:22;;;;;;;8.90;4.70;;;14.10;99.90;;;;;;5016852;28;20211;-92
2021/09/29 00:33:57;;;;;;;7.97;5.00;;;14.10;99.90;;;;;;5014284;28;20207;-91
2021/09/29 00:36:24;;;;;;;11.43;5.30;;;14.10;99.90;;;;;;5014429;28;20198;-87
2021/09/29 00:38:51;;;;;;;6.57;4.53;;;14.10;99.90;;;;;;5032733;28;20210;-89
2021/09/29 00:41:18;;;;;;;6.47;4.60;;;14.10;99.90;;;;;;5034092;28;20197;-91
2021/09/29 00:43:45;;;;;;;11.60;5.00;;;14.00;99.90;;;;;;5033699;28;20210;-81
2021/09/29 00:46:12;;;;;;;8.40;5.37;;;14.00;99.90;;;;;;5033313;28;20754;-89
2021/09/29 00:48:38;;;;;;;6.40;5.10;;;14.00;99.90;;;;;;5033283;28;20207;-88
2021/09/29 00:51:09;;;;;;;7.20;4.73;;;14.00;99.90;;;;;;5033701;28;20210;-81
2021/09/29 00:53:36;;;;;;;7.67;4.80;;;14.00;99.90;;;;;;5032995;28;20203;-87
2021/09/29 00:56:04;;;;;;;7.73;4.87;;;14.00;99.90;;;;;;5032472;28;20590;-87
2021/09/29 00:58:31;;;;;;;9.63;5.47;;;14.00;99.90;;;;;;5020646;28;20242;-91
2021/09/29 01:00:57;;;;;;;8.27;4.70;;;14.00;99.90;;;;;;5013821;28;20207;-90
2021/09/29 01:03:24;;;;;;;10.00;4.77;;;14.00;99.90;;;;;;5027788;28;20202;-85
2021/09/29 01:05:54;;;;;;;7.03;5.03;;;13.90;99.90;;;;;;5033263;28;20217;-86
2021/09/29 01:08:28;;;;;;;9.27;5.30;;;13.90;99.90;;;;;;5032054;28;20206;-93
2021/09/29 01:11:02;;;;;;;9.87;5.30;;;13.90;99.90;;;;;;5028925;28;20727;-88
2021/09/29 01:13:42;;;;;;;8.67;5.37;;;13.90;99.90;;;;;;5012494;28;20242;-88
2021/09/29 01:16:11;;;;;;;11.87;5.63;;;13.80;99.90;;;;;;5028903;28;20218;-81
2021/09/29 01:18:44;;;;;;;7.37;5.20;;;13.80;99.90;;;;;;5032035;28;20209;-88
2021/09/29 01:21:14;;;;;;;8.73;5.80;;;13.80;99.90;;;;;;5035201;28;20256;-92
2021/09/29 01:24:05;;;;;;;9.47;5.80;;;13.80;99.90;;;;;;5020666;28;20228;-88
2021/09/29 01:26:36;;;;;;;8.10;5.43;;;13.80;99.90;;;;;;5012754;28;20478;-90
2021/09/29 01:29:04;;;;;;;11.23;5.83;;;13.80;99.90;;;;;;5012545;28;20213;-86
2021/09/29 01:31:32;;;;;;;8.20;5.50;;;13.80;99.90;;;;;;5013782;28;20222;-91
2021/09/29 01:34:00;;;;;;;10.43;5.90;;;13.80;99.90;;;;;;5012833;28;20211;-88
2021/09/29 01:36:27;;;;;;;12.13;5.60;;;13.80;99.90;;;;;;5013828;28;20219;-88
2021/09/29 01:38:56;;;;;;;9.27;5.20;;;13.70;99.90;;;;;;5013257;28;20588;-89
2021/09/29 01:41:24;;;;;;;10.77;5.70;;;13.70;99.90;;;;;;5014336;28;20231;-93
2021/09/29 01:43:53;;;;;;;6.50;4.70;;;13.70;99.90;;;;;;5008553;28;20542;-93
2021/09/29 01:46:20;;;;;;;11.10;5.77;;;13.70;99.90;;;;;;5009111;28;20265;-85
2021/09/29 01:48:54;;;;;;;11.00;6.30;;;13.70;99.90;;;;;;5009085;28;20206;-83
2021/09/29 01:51:23;;;;;;;9.07;5.77;;;13.70;99.90;;;;;;5007764;28;20223;-78
2021/09/29 01:53:53;;;;;;;10.17;5.43;;;13.70;99.90;;;;;;5008883;28;20222;-85
2021/09/29 01:56:20;;;;;;;12.43;5.63;;;13.70;99.90;;;;;;5009076;28;20639;-82
2021/09/29 01:58:47;;;;;;;8.50;5.77;;;13.60;99.90;;;;;;5009479;28;20231;-89
2021/09/29 02:01:16;;;;;;;8.77;5.90;;;13.70;99.90;;;;;;5012950;28;20213;-87
2021/09/29 02:03:46;;;;;;;9.10;5.93;;;13.60;99.90;;;;;;5011327;28;20208;-86
2021/09/29 02:06:13;;;;;;;7.40;5.87;;;13.70;99.90;;;;;;5011822;28;20209;-90
2021/09/29 02:08:41;;;;;;;13.97;6.93;;;13.60;99.90;;;;;;5010196;28;20207;-91
2021/09/29 02:11:08;;;;;;;11.00;6.50;;;13.60;99.90;;;;;;5008871;28;20191;-90
2021/09/29 02:13:35;;;;;;;10.07;5.80;;;13.60;99.90;;;;;;5008853;28;20199;-89
2021/09/29 02:16:02;;;;;;;12.53;6.57;;;13.60;99.90;;;;;;5009267;28;20231;-89
2021/09/29 02:18:30;;;;;;;13.13;5.90;;;13.60;99.90;;;;;;5009328;28;20215;-87
2021/09/29 02:20:57;;;;;;;9.53;6.23;;;13.60;99.90;;;;;;5010907;28;20207;-91
2021/09/29 02:23:23;;;;;;;9.57;6.07;;;13.60;99.90;;;;;;5010368;28;20203;-87
2021/09/29 02:25:50;;;;;;;13.53;7.00;;;13.60;99.90;;;;;;5020176;28;20214;-81
2021/09/29 02:28:17;;;;;;;6.47;5.40;;;13.60;99.90;;;;;;5028279;28;20201;-83
2021/09/29 02:30:44;;;;;;;11.07;6.27;;;13.60;99.90;;;;;;5008476;28;20198;-84
2021/09/29 02:33:11;;;;;;;10.13;6.10;;;13.60;99.90;;;;;;5008967;28;20203;-82
2021/09/29 02:35:39;;;;;;;11.20;6.07;;;13.60;99.90;;;;;;5008870;28;20829;-91
2021/09/29 02:38:06;;;;;;;7.30;5.53;;;13.60;99.90;;;;;;5013771;28;20292;-88
2021/09/29 02:40:33;;;;;;;7.47;5.63;;;13.60;99.90;;;;;;5009789;28;20581;-90
2021/09/29 02:43:00;;;;;;;11.83;6.27;;;13.60;99.90;;;;;;5009836;28;20211;-93
2021/09/29 02:45:27;;;;;;;11.17;6.30;;;13.60;99.90;;;;;;5014303;28;20205;-86
2021/09/29 02:47:53;;;;;;;10.27;6.03;;;13.60;99.90;;;;;;5029703;28;20209;-81
2021/09/29 02:50:21;;;;;;;9.50;5.80;;;13.60;99.90;;;;;;5026259;28;20210;-87
2021/09/29 02:52:49;;;;;;;8.57;6.30;;;13.60;99.90;;;;;;5010032;28;20653;-90
2021/09/29 02:55:16;;;;;;;8.37;5.97;;;13.60;99.90;;;;;;5010115;28;20235;-87
2021/09/29 02:57:43;;;;;;;11.00;6.00;;;13.60;99.90;;;;;;5009641;28;20231;-92
2021/09/29 03:00:12;;;;;;;12.83;6.43;;;13.50;99.90;;;;;;5009084;28;20209;-90
2021/09/29 03:02:38;;;;;;;10.47;5.87;;;13.60;99.90;;;;;;5010207;28;20622;-91
2021/09/29 03:05:06;;;;;;;9.40;6.07;;;13.60;99.90;;;;;;5011052;28;20227;-89
2021/09/29 03:07:33;;;;;;;12.83;5.70;;;13.60;99.90;;;;;;5009770;28;20214;-83
2021/09/29 03:10:01;;;;;;;9.80;6.23;;;13.50;99.90;;;;;;5010730;28;20412;-88
2021/09/29 03:12:28;;;;;;;9.13;6.10;;;13.50;99.90;;;;;;5009632;28;20206;-81
2021/09/29 03:14:55;;;;;;;8.10;5.93;;;13.50;99.90;;;;;;5009918;28;20234;-83
2021/09/29 03:17:22;;;;;;;11.97;6.30;;;13.50;99.90;;;;;;5010955;28;20207;-80
2021/09/29 03:19:49;;;;;;;9.57;5.87;;;13.50;99.90;;;;;;5025957;28;20217;-86
2021/09/29 03:22:16;;;;;;;8.60;5.97;;;13.40;99.90;;;;;;5029114;28;20202;-88
2021/09/29 03:24:43;;;;;;;10.00;6.73;;;13.40;99.90;;;;;;5029527;28;20202;-86
2021/09/29 03:27:11;;;;;;;11.73;6.43;;;13.40;99.90;;;;;;5021401;28;20207;-92
2021/09/29 03:29:38;;;;;;;8.13;5.40;;;13.40;99.90;;;;;;5010323;28;20211;-89
2021/09/29 03:32:05;;;;;;;8.77;6.33;;;13.40;99.90;;;;;;5010683;28;20211;-89
2021/09/29 03:34:32;;;;;;;10.07;6.00;;;13.40;99.90;;;;;;5009717;28;20204;-89
2021/09/29 03:36:59;;;;;;;8.20;5.67;;;13.40;99.90;;;;;;5021228;28;20234;-88
2021/09/29 03:39:26;;;;;;;9.03;5.67;;;13.40;99.90;;;;;;5030915;28;20195;-90
2021/09/29 03:41:52;;;;;;;6.33;5.50;;;13.40;99.90;;;;;;5030224;28;20203;-89
2021/09/29 03:44:21;;;;;;;9.67;5.47;;;13.40;99.90;;;;;;5030403;28;20195;-92
2021/09/29 03:46:47;;;;;;;10.17;6.80;;;13.40;99.90;;;;;;5030694;28;20210;-90
2021/09/29 03:49:14;;;;;;;6.30;5.60;;;13.40;99.90;;;;;;5029498;28;20217;-90
2021/09/29 03:51:41;;;;;;;13.00;6.27;;;13.40;99.90;;;;;;5030030;28;20210;-88
2021/09/29 03:54:08;;;;;;;10.60;6.67;;;13.40;99.90;;;;;;5030282;28;20279;-92
2021/09/29 03:56:35;;;;;;;8.87;6.03;;;13.40;99.90;;;;;;5027983;28;20238;-88
2021/09/29 03:59:01;;;;;;;7.50;5.83;;;13.40;99.90;;;;;;5029927;28;20234;-90
2021/09/29 04:01:30;;;;;;;9.90;5.47;;;13.50;99.90;;;;;;5029429;28;20656;-84
2021/09/29 04:03:57;;;;;;;9.80;5.70;;;13.50;99.90;;;;;;5029911;28;20226;-91
2021/09/29 04:06:23;;;;;;;10.03;5.10;;;13.50;99.90;;;;;;5029323;28;20214;-86
2021/09/29 04:08:50;;;;;;;9.23;5.53;;;13.50;99.90;;;;;;5032631;28;20579;-89
2021/09/29 04:11:17;;;;;;;9.80;4.90;;;13.50;99.90;;;;;;5033036;28;20209;-89
2021/09/29 04:13:44;;;;;;;9.73;5.47;;;13.50;99.90;;;;;;5016750;28;20629;-90
2021/09/29 04:16:13;;;;;;;8.43;5.10;;;13.50;99.90;;;;;;5008897;28;20267;-86
2021/09/29 04:18:41;;;;;;;8.97;4.33;;;13.50;99.90;;;;;;5009730;28;20203;-84
2021/09/29 04:21:11;;;;;;;11.03;5.50;;;13.60;99.90;;;;;;5009675;28;20234;-80
2021/09/29 04:23:38;;;;;;;10.23;4.70;;;13.50;99.90;;;;;;5009364;28;20195;-86
2021/09/29 04:26:06;;;;;;;8.30;4.53;;;13.50;99.90;;;;;;5008975;28;20206;-88
2021/09/29 04:28:33;;;;;;;7.30;4.37;;;13.50;99.90;;;;;;5010222;28;20214;-87
2021/09/29 04:31:02;;;;;;;8.10;4.07;;;13.50;99.90;;;;;;5010575;28;20267;-87
2021/09/29 04:33:29;;;;;;;7.57;4.30;;;13.50;99.90;;;;;;5010527;28;20204;-82
2021/09/29 04:35:57;;;;;;;7.43;3.93;;;13.40;99.90;;;;;;5010675;28;20254;-84
2021/09/29 04:38:24;;;;;;;10.17;4.37;;;13.40;99.90;;;;;;5017179;28;20219;-87
2021/09/29 04:40:51;;;;;;;8.27;4.30;;;13.40;99.90;;;;;;5030343;28;20223;-81
2021/09/29 04:43:18;;;;;;;8.47;3.83;;;13.40;99.90;;;;;;5028991;28;20213;-88
2021/09/29 04:45:46;;;;;;;8.13;4.23;;;13.40;99.90;;;;;;5017863;28;20211;-83
2021/09/29 04:48:14;;;;;;;7.70;3.90;;;13.40;99.90;;;;;;5011712;28;20210;-85
2021/09/29 04:50:44;;;;;;;7.53;3.83;;;13.40;99.90;;;;;;5016817;28;20211;-87
2021/09/29 04:53:12;;;;;;;9.27;4.53;;;13.40;99.90;;;;;;5011199;28;20511;-87
2021/09/29 04:55:39;;;;;;;7.57;4.07;;;13.40;99.90;;;;;;5013002;28;20223;-86
2021/09/29 04:58:07;;;;;;;9.50;4.83;;;13.40;99.90;;;;;;5032612;28;20238;-89
2021/09/29 05:00:34;;;;;;;8.00;4.10;;;13.40;99.90;;;;;;5031097;28;20194;-90
2021/09/29 05:03:02;;;;;;;8.07;4.13;;;13.40;99.90;;;;;;5015758;28;20245;-90
2021/09/29 05:05:33;;;;;;;7.63;3.80;;;13.40;99.90;;;;;;5012432;28;20219;-88
2021/09/29 05:08:01;;;;;;;6.83;3.90;;;13.40;99.90;;;;;;5027189;28;20218;-90
2021/09/29 05:10:50;;;;;;;7.90;4.43;;;13.40;99.90;;;;;;5031738;28;20202;-89
2021/09/29 05:13:18;;;;;;;7.73;3.93;;;13.40;99.90;;;;;;5020090;28;20215;-91
2021/09/29 05:15:47;;;;;;;6.87;4.40;;;13.30;99.90;;;;;;5012414;28;20639;-90
2021/09/29 05:18:15;;;;;;;8.03;4.37;;;13.30;99.90;;;;;;5012235;28;20302;-89
2021/09/29 05:20:42;;;;;;;6.73;4.37;;;13.30;99.90;;;;;;5012231;28;20211;-83
2021/09/29 05:23:09;;;;;;;9.23;4.17;;;13.40;99.90;;;;;;5011604;28;20215;-86
2021/09/29 05:25:37;;;;;;;7.27;4.40;;;13.40;99.90;;;;;;5012101;28;20196;-87
2021/09/29 05:28:07;;;;;;;9.03;4.43;;;13.40;99.90;;;;;;5012006;28;20585;-88
2021/09/29 05:30:34;;;;;;;7.70;4.73;;;13.40;99.90;;;;;;5012023;28;20202;-88
2021/09/29 05:33:00;;;;;;;10.80;4.53;;;13.40;99.90;;;;;;5012462;28;20207;-88
2021/09/29 05:35:28;;;;;;;8.97;4.13;;;13.30;99.90;;;;;;5011235;28;20211;-90
2021/09/29 05:37:54;;;;;;;8.10;5.37;;;13.40;99.90;;;;;;5012131;28;20279;-86
2021/09/29 05:40:21;;;;;;;9.30;5.50;;;13.40;99.90;;;;;;5010440;28;20203;-88
2021/09/29 05:42:50;;;;;;;8.37;5.07;;;13.40;99.90;;;;;;5011954;28;20195;-87
2021/09/29 05:45:16;;;;;;;9.73;5.03;;;13.40;99.90;;;;;;5011963;28;20211;-87
2021/09/29 05:47:46;;;;;;;9.63;5.10;;;13.40;99.90;;;;;;5011585;28;20203;-89
2021/09/29 05:50:13;;;;;;;8.17;4.30;;;13.40;99.90;;;;;;5011634;28;20214;-88
2021/09/29 05:52:40;;;;;;;10.13;4.50;;;13.40;99.90;;;;;;5011600;28;20306;-90
2021/09/29 05:55:08;;;;;;;11.37;4.63;;;13.40;99.90;;;;;;5008464;28;20257;-88
2021/09/29 05:57:35;;;;;;;13.50;4.90;;;13.40;99.90;;;;;;5014368;28;20807;-86
2021/09/29 06:00:04;;;;;;;11.07;4.73;;;13.40;99.90;;;;;;5031988;28;20210;-86
2021/09/29 06:02:30;;;;;;;8.70;4.43;;;13.40;99.90;;;;;;5020486;28;20211;-87
2021/09/29 06:04:57;;;;;;;10.03;4.63;;;13.40;99.90;;;;;;5011731;28;20231;-88
2021/09/29 06:07:26;;;;;;;9.93;5.57;;;13.40;99.90;;;;;;5011638;28;20761;-85
2021/09/29 06:09:53;;;;;;;8.90;5.00;;;13.40;99.90;;;;;;5082056;23;20243;-89
2021/09/29 06:12:20;;;;;;;10.80;4.90;;;13.50;99.90;;;;;;5112339;28;20200;-87
2021/09/29 06:14:52;;;;;;;10.37;4.40;;;13.50;99.90;;;;;;5112516;28;20223;-87
2021/09/29 06:17:23;;;;;;;9.90;4.80;;;13.50;99.90;;;;;;5111103;28;20211;-89
2021/09/29 06:19:51;;;;;;;7.80;4.77;;;13.50;99.90;;;;;;5111576;28;20219;-92
2021/09/29 06:22:19;;;;;;;10.93;5.43;;;13.50;99.90;;;;;;5096973;28;20204;-90
2021/09/29 06:24:46;;;;;;;8.17;4.43;;;13.50;99.90;;;;;;5107928;27;20210;-88
2021/09/29 06:27:13;;;;;;;12.57;3.87;;;13.50;99.90;;;;;;5113299;28;20588;-86
2021/09/29 06:29:40;;;;;;;8.67;4.10;;;13.50;99.90;;;;;;5105497;28;20213;-89
2021/09/29 06:32:07;;;;;;;10.93;5.13;;;13.50;99.90;;;;;;5090013;28;20716;-85
2021/09/29 06:34:36;;;;;;;9.67;4.43;;;13.50;99.90;;;;;;5089272;28;20288;-82
2021/09/29 06:37:03;;;;;;;6.67;3.80;;;13.50;99.90;;;;;;5099942;27;20219;-85
2021/09/29 06:39:30;;;;;;;11.23;4.13;;;13.50;99.90;;;;;;5130404;27;20203;-82
2021/09/29 06:41:57;;;;;;;11.50;4.40;;;13.50;99.90;;;;;;5127340;27;20214;-82
2021/09/29 06:44:24;;;;;;;9.87;4.73;;;13.50;99.90;;;;;;5113367;27;20636;-82
2021/09/29 06:46:52;;;;;;;17.07;6.57;;;13.50;99.90;;;;;;5108525;28;20196;-82
2021/09/29 06:49:19;;;;;;;11.93;4.13;;;13.50;99.90;;;;;;5108857;28;20203;-84
2021/09/29 06:51:48;;;;;;;13.23;2.70;;;13.50;99.90;;;;;;5104538;28;20196;-83
2021/09/29 06:54:14;;;;;;;13.70;2.43;;;13.50;99.90;;;;;;5087696;28;20201;-85
2021/09/29 06:56:42;;;;;;;14.03;2.93;;;13.50;99.90;;;;;;5088652;28;20216;-84
2021/09/29 06:59:08;;;;;;;12.23;2.80;;;13.40;99.90;;;;;;5087949;28;20204;-81
2021/09/29 07:01:35;;;;;;;11.77;2.23;;;13.30;99.90;;;;;;5101075;28;20200;-83
2021/09/29 07:04:02;;;;;;;10.07;1.97;;;13.10;99.90;;;;;;5087035;28;20767;-85
2021/09/29 07:06:29;;;;;;;6.83;1.30;;;13.00;99.90;;;;;;5085369;28;20598;-82
2021/09/29 07:08:58;;;;;;;9.27;1.47;;;13.00;99.90;;;;;;5088814;28;20240;-84
2021/09/29 07:11:25;;;;;;;6.73;1.53;;;12.90;99.90;;;;;;5087984;28;20220;-84
2021/09/29 07:13:51;;;;;;;5.90;1.20;;;12.90;99.90;;;;;;5088613;28;20211;-83
2021/09/29 07:16:19;;;;;;;6.40;1.03;;;12.80;99.90;;;;;;5086649;28;20223;-83
2021/09/29 07:18:46;;;;;;;8.73;1.50;;;12.70;99.90;;;;;;5087524;28;20284;-83
2021/09/29 07:21:13;;;;;;;4.43;1.20;;;12.70;99.90;;;;;;5085105;28;20208;-82
2021/09/29 07:23:39;;;;;;;7.33;1.33;;;12.70;99.90;;;;;;5090440;28;20596;-83
2021/09/29 07:26:13;;;;;;;3.77;1.00;;;12.70;99.90;;;;;;5073495;28;20486;-84
2021/09/29 07:28:40;;;;;;;3.17;0.80;;;12.60;99.90;;;;;;5106495;28;20192;-83
2021/09/29 07:31:07;;;;;;;7.83;1.20;;;12.60;99.90;;;;;;5106547;28;20204;-82
2021/09/29 07:33:35;;;;;;;4.33;1.00;;;12.60;99.90;;;;;;5092599;28;20213;-84
2021/09/29 07:36:02;;;;;;;6.43;0.80;;;12.70;99.90;;;;;;5086979;28;20601;-82
2021/09/29 07:38:29;;;;;;;3.83;0.87;;;12.70;99.90;;;;;;5087640;28;20216;-84
2021/09/29 07:40:56;;;;;;;1.87;0.70;;;12.70;99.90;;;;;;5087093;28;20231;-82
2021/09/29 07:43:24;;;;;;;2.23;0.70;;;12.80;99.90;;;;;;5088509;27;20200;-83
2021/09/29 07:45:51;;;;;;;3.80;0.80;;;12.80;99.90;;;;;;5090463;28;20199;-83
2021/09/29 07:48:18;;;;;;;3.43;0.93;;;12.80;99.90;;;;;;5091108;28;20521;-86
2021/09/29 07:50:45;;;;;;;3.17;1.07;;;12.90;99.90;;;;;;5111217;27;20221;-85
2021/09/29 07:53:14;;;;;;;4.67;1.00;;;12.90;99.90;;;;;;5132147;27;20209;-85
2021/09/29 07:55:41;;;;;;;3.93;1.10;;;13.00;99.90;;;;;;5127825;27;20237;-82
2021/09/29 07:58:08;;;;;;;8.07;1.90;;;13.00;99.90;;;;;;5110990;28;20520;-83
2021/09/29 08:00:36;;;;;;;6.93;2.27;;;13.00;99.90;;;;;;5110318;28;20200;-83
2021/09/29 08:03:03;;;;;;;4.43;1.70;;;13.00;99.90;;;;;;5109944;28;20207;-82
2021/09/29 08:05:31;;;;;;;6.37;1.40;;;13.00;99.90;;;;;;5090108;28;20236;-83
2021/09/29 08:07:58;;;;;;;3.60;1.40;;;13.00;99.90;;;;;;5090300;28;20205;-81
2021/09/29 08:10:24;;;;;;;7.57;2.00;;;13.00;99.90;;;;;;5089116;28;20346;-81
2021/09/29 08:12:51;;;;;;;6.77;1.83;;;13.00;99.90;;;;;;5090984;28;20273;-81
2021/09/29 08:15:18;;;;;;;3.93;1.10;;;13.00;99.90;;;;;;5089883;28;20243;-84
2021/09/29 08:17:47;;;;;;;3.17;1.60;;;13.00;99.90;;;;;;5092452;28;20224;-82
2021/09/29 08:20:17;;;;;;;3.30;1.23;;;13.00;99.90;;;;;;5092012;28;20200;-84
2021/09/29 08:22:46;;;;;;;2.43;1.70;;;13.00;99.90;;;;;;5102036;28;20204;-86
2021/09/29 08:25:19;;;;;;;2.67;1.40;;;13.00;99.90;;;;;;5111344;28;20196;-87
2021/09/29 08:28:00;;;;;;;3.47;1.50;;;13.10;99.90;;;;;;5110382;28;20204;-86
2021/09/29 08:30:38;;;;;;;5.27;1.50;;;13.00;99.90;;;;;;5089943;28;20204;-85
2021/09/29 08:33:14;;;;;;;4.37;1.27;;;13.00;99.90;;;;;;5106556;27;20313;-87
2021/09/29 08:35:46;;;;;;;4.97;1.30;;;13.00;99.90;;;;;;5123160;27;20256;-86
2021/09/29 08:38:25;;;;;;;5.13;0.93;;;13.00;99.90;;;;;;5116228;27;20208;-86
2021/09/29 08:40:57;;;;;;;2.80;0.80;;;13.00;99.90;;;;;;5101389;28;20204;-86
2021/09/29 08:43:33;;;;;;;3.03;0.80;;;13.00;99.90;;;;;;5090980;28;20226;-86
2021/09/29 08:46:03;;;;;;;4.80;1.37;;;13.00;99.90;;;;;;5089238;28;20204;-87
2021/09/29 08:48:40;;;;;;;2.33;0.90;;;13.00;99.90;;;;;;5088708;28;20967;-86
2021/09/29 08:51:27;;;;;;;2.60;0.90;;;13.00;99.90;;;;;;5087166;28;20402;-82
2021/09/29 08:54:18;;;;;;;4.97;1.13;;;13.10;99.90;;;;;;5086707;28;20602;-82
2021/09/29 09:16:31;;;;;;;2.27;0.70;;;13.20;99.90;;;;;;5093061;28;20195;-83
2021/09/29 09:18:59;;;;;;;4.13;1.10;;;13.20;99.90;;;;;;5102852;28;20223;-84
2021/09/29 09:21:28;;;;;;;3.20;1.10;;;13.10;99.90;;;;;;5104449;28;20204;-85
2021/09/29 09:23:55;;;;;;;2.33;1.00;;;13.10;99.90;;;;;;5104179;28;20283;-82
2021/09/29 09:26:24;;;;;;;4.77;0.80;;;13.00;99.90;;;;;;5101035;28;20207;-84
2021/09/29 09:29:05;;;;;;;4.03;0.87;;;13.00;99.90;;;;;;5101766;28;20202;-83
2021/09/29 09:31:33;;;;;;;6.00;1.30;;;12.90;99.90;;;;;;5105078;28;20580;-84
2021/09/29 09:34:02;;;;;;;4.00;1.30;;;12.90;99.90;;;;;;5106501;28;20208;-84
2021/09/29 09:36:32;;;;;;;4.50;1.57;;;13.00;99.90;;;;;;5106899;28;20218;-84
2021/09/29 09:39:01;;;;;;;7.60;1.27;;;12.90;99.90;;;;;;5087794;28;20285;-84
2021/09/29 09:41:28;;;;;;;4.27;1.20;;;12.90;99.90;;;;;;5085203;28;20200;-85
2021/09/29 09:43:57;;;;;;;14.97;3.10;;;12.90;99.90;;;;;;5085953;28;20208;-85
2021/09/29 09:46:24;;;;;;;3.97;1.07;;;12.90;99.90;;;;;;5086419;28;20208;-83
2021/09/29 09:49:05;;;;;;;6.00;1.60;;;13.00;99.90;;;;;;5085330;28;20205;-84
2021/09/29 09:51:33;;;;;;;7.77;1.80;;;12.90;99.90;;;;;;5085686;28;20762;-83
2021/09/29 09:54:01;;;;;;;2.53;1.00;;;12.90;99.90;;;;;;5084975;28;20197;-83
2021/09/29 09:56:30;;;;;;;4.20;0.80;;;12.80;99.90;;;;;;5084433;28;20216;-83
2021/09/29 09:58:57;;;;;;;3.10;0.90;;;12.80;99.90;;;;;;5084456;28;20240;-83
2021/09/29 10:01:28;;;;;;;5.30;0.70;;;12.70;99.90;;;;;;5084737;28;20208;-84
2021/09/29 10:03:55;;;;;;;2.90;0.70;;;12.80;99.90;;;;;;5084833;28;20231;-84
2021/09/29 10:06:24;;;;;;;1.87;0.50;;;12.80;99.90;;;;;;5085055;28;20200;-83
2021/09/29 10:08:58;;;;;;;2.43;0.47;;;12.80;99.90;;;;;;5083945;28;20211;-82
2021/09/29 10:11:27;;;;;;;4.00;0.80;;;12.80;99.90;;;;;;5070142;28;20205;-83
2021/09/29 10:14:16;;;;;;;2.27;0.67;;;12.80;99.90;;;;;;5070844;28;20279;-84
2021/09/29 10:28:09;;;;;;;3.50;0.70;;;12.80;99.90;;;;;;5054018;28;20196;-82
2021/09/29 10:30:39;;;;;;;1.43;0.60;;;12.80;99.90;;;;;;5069906;28;20852;-82
2021/09/29 10:33:10;;;;;;;3.63;0.60;;;12.90;99.90;;;;;;5069634;28;20225;-84
2021/09/29 10:35:58;;;;;;;3.33;0.80;;;12.90;99.90;;;;;;5070515;28;20209;-85
2021/09/29 10:41:23;;;;;;;4.43;1.30;;;13.00;99.90;;;;;;5074889;28;20228;-87
2021/09/29 10:46:49;;;;;;;4.83;1.87;;;13.00;99.90;;;;;;5092834;28;20212;-87
2021/09/29 10:49:24;;;;;;;4.87;2.20;;;13.00;99.90;;;;;;5080160;28;20878;-85
2021/09/29 10:52:28;;;;;;;3.63;2.03;;;13.00;99.90;;;;;;5072155;28;20624;-84
2021/09/29 11:06:49;;;;;;;6.60;1.30;;;12.90;99.90;;;;;;5126343;27;20603;-80
2021/09/29 11:09:45;;;;;;;7.17;1.50;;;13.10;99.90;;;;;;5107998;27;20215;-87
2021/09/29 11:28:51;;;;;;;4.23;1.57;;;13.20;99.90;;;;;;5107771;28;20179;-87
2021/09/29 11:31:21;;;;;;;6.03;1.93;;;13.30;99.90;;;;;;5105606;28;20519;-87
2021/09/29 11:33:57;;;;;;;4.33;1.10;;;13.30;99.90;;;;;;5090662;28;20219;-87
2021/09/29 11:36:39;;;;;;;4.93;1.83;;;13.40;99.90;;;;;;5086518;28;20208;-85
2021/09/29 11:39:26;;;;;;;5.33;1.33;;;13.40;99.90;;;;;;5086853;28;20235;-86
2021/09/29 12:09:36;;;;;;;5.80;1.60;;;14.20;99.90;;;;;;5104702;28;20256;-83
2021/09/29 12:12:18;;;;;;;5.17;1.50;;;14.20;99.90;;;;;;5098677;28;20649;-82
2021/09/29 12:14:47;;;;;;;5.20;1.47;;;14.20;99.90;;;;;;5086505;28;20234;-85
2021/09/29 12:17:20;;;;;;;4.73;1.77;;;14.10;99.90;;;;;;5092246;28;20544;-85
2021/09/29 12:19:52;;;;;;;7.00;1.93;;;13.90;99.90;;;;;;5089065;28;20204;-89
2021/09/29 12:22:20;;;;;;;10.07;2.77;;;13.80;99.90;;;;;;5080749;28;20213;-85
2021/09/29 12:24:50;;;;;;;10.93;2.60;;;13.60;99.90;;;;;;5087632;28;20220;-86
2021/09/29 12:27:31;;;;;;;10.77;2.60;;;13.40;99.90;;;;;;5092060;28;20223;-91
2021/09/29 12:30:03;;;;;;;13.63;3.30;;;13.20;99.90;;;;;;5082184;28;20284;-89
2021/09/29 12:32:46;;;;;;;6.47;1.40;;;13.10;99.90;;;;;;5072022;28;20667;-91
2021/09/29 12:35:33;;;;;;;5.47;1.60;;;13.00;99.90;;;;;;5072724;28;20235;-91
2021/09/29 12:38:02;;;;;;;9.47;2.30;;;12.90;99.90;;;;;;5072489;28;20682;-90
2021/09/29 12:40:31;;;;;;;8.37;3.00;;;12.90;99.90;;;;;;5073221;28;20239;-90
2021/09/29 12:43:02;;;;;;;10.30;2.87;;;12.90;99.90;;;;;;5071222;28;20212;-85
2021/09/29 12:45:33;;;;;;;14.73;2.53;;;12.90;99.90;;;;;;5071501;28;20228;-83
2021/09/29 12:48:00;;;;;;;15.90;3.57;;;12.90;99.90;;;;;;5074417;28;20213;-86
2021/09/29 12:50:37;;;;;;;6.63;1.90;;;12.80;99.90;;;;;;5089559;28;20228;-87
2021/09/29 12:53:14;;;;;;;15.60;2.30;;;12.30;99.90;;;;;;5089160;28;20200;-80
2021/09/29 12:55:45;;;;;;;6.30;1.83;;;12.10;99.90;;;;;;5090532;28;20301;-84
2021/09/29 12:58:13;;;;;;;7.97;2.30;;;12.10;99.90;;;;;;5091636;28;20192;-86
2021/09/29 13:00:40;;;;;;;2.97;1.20;;;12.20;99.90;;;;;;5091540;28;20201;-84
2021/09/29 13:03:07;;;;;;;7.90;1.73;;;12.20;99.90;;;;;;5092235;28;20205;-86
2021/09/29 13:05:35;;;;;;;9.60;1.50;;;12.20;99.90;;;;;;5091615;28;20244;-88
2021/09/29 13:08:01;;;;;;;9.37;2.17;;;12.30;99.90;;;;;;5072955;28;20258;-87
2021/09/29 13:10:28;;;;;;;11.33;2.80;;;12.30;99.90;;;;;;5081264;28;20204;-84
2021/09/29 13:12:55;;;;;;;11.37;3.30;;;12.40;99.90;;;;;;5087585;28;20200;-88
2021/09/29 13:15:24;;;;;;;10.90;2.40;;;12.50;99.90;;;;;;5089346;28;20211;-87
2021/09/29 13:17:53;;;;;;;11.67;2.17;;;12.60;99.90;;;;;;5089886;28;20201;-82
2021/09/29 13:20:22;;;;;;;10.77;3.27;;;12.80;99.90;;;;;;5071302;28;20225;-86
2021/09/29 13:22:53;;;;;;;10.57;2.50;;;12.90;99.90;;;;;;5070676;28;20308;-85
2021/09/29 13:25:47;;;;;;;7.67;2.30;;;13.10;99.90;;;;;;5068920;28;20229;-86
2021/09/29 13:36:36;;;;;;;8.43;2.43;;;12.90;99.90;;;;;;5070622;28;20197;-86
2021/09/29 13:39:05;;;;;;;15.70;3.30;;;12.80;99.90;;;;;;5069755;28;20205;-89
2021/09/29 13:41:32;;;;;;;14.70;3.20;;;12.80;99.90;;;;;;5071021;28;20209;-83
2021/09/29 13:43:59;;;;;;;14.03;3.33;;;12.90;99.90;;;;;;5071116;28;20209;-85
2021/09/29 13:46:27;;;;;;;11.57;3.80;;;12.90;99.90;;;;;;5071558;28;20224;-86
2021/09/29 13:48:56;;;;;;;7.43;1.73;;;13.00;99.90;;;;;;5088534;28;20232;-85
2021/09/29 13:51:25;;;;;;;6.83;1.90;;;13.00;99.90;;;;;;5070187;28;20197;-84
2021/09/29 13:53:52;;;;;;;5.97;1.90;;;13.20;99.90;;;;;;5069441;28;20580;-86
2021/09/29 13:56:20;;;;;;;5.83;1.47;;;13.30;99.90;;;;;;5074611;28;20227;-85
2021/09/29 14:29:08;;;;;;;4.20;1.10;;;13.80;99.90;;;;;;5089583;28;20184;-88
2021/09/29 14:31:41;;;;;;;6.13;1.40;;;13.90;99.90;;;;;;5080631;28;20513;-87
2021/09/29 14:34:11;;;;;;;5.70;2.03;;;14.00;99.90;;;;;;5068773;28;20197;-88
2021/09/29 14:36:38;;;;;;;8.83;2.80;;;14.00;99.90;;;;;;5069170;28;20201;-88
2021/09/29 14:39:05;;;;;;;9.27;2.00;;;13.90;99.90;;;;;;5087048;28;20201;-91
2021/09/29 14:41:32;;;;;;;11.97;1.90;;;13.90;99.90;;;;;;5090139;28;20346;-87
2021/09/29 14:43:59;;;;;;;11.40;2.13;;;13.90;99.90;;;;;;5077220;28;20288;-82
2021/09/29 14:46:26;;;;;;;8.73;1.77;;;13.90;99.90;;;;;;5069100;28;20229;-80
2021/09/29 14:48:52;;;;;;;7.20;1.60;;;13.90;99.90;;;;;;5069049;28;20212;-82
2021/09/29 14:51:21;;;;;;;8.23;1.70;;;14.00;99.90;;;;;;5083358;28;20216;-90
2021/09/29 14:53:50;;;;;;;13.10;2.37;;;14.00;99.90;;;;;;5089325;28;20780;-83
2021/09/29 14:56:19;;;;;;;9.83;1.90;;;14.10;99.90;;;;;;5068395;28;20211;-89
2021/09/29 14:58:46;;;;;;;8.40;1.50;;;14.10;99.90;;;;;;5067930;28;20197;-85
2021/09/29 15:01:14;;;;;;;9.57;1.67;;;14.20;99.90;;;;;;5067953;28;20216;-85
2021/09/29 15:03:41;;;;;;;7.00;1.50;;;14.30;99.90;;;;;;5068603;28;20652;-85
2021/09/29 15:06:08;;;;;;;12.40;2.43;;;14.30;99.90;;;;;;5068370;28;20237;-86